Time;durP1;ratioP1;P1;durP2;ratioP2;P2;SDS_P1;SDS_P2;PMS_P1;PMS_P2;Temp;Humidity;BMP_temperature;BMP_pressure;BME280_temperature;BME280_humidity;BME280_pressure;Samples;Min_cycle;Max_cycle;Signal;HPM_P1;HPM_P2
2021/01/29 00:02:20;;;;;;;1.97;1.87;;;23.90;64.30;;;;;;5034997;28;20439;-65
2021/01/29 00:04:46;;;;;;;2.00;1.80;;;23.90;63.40;;;;;;5034889;28;20456;-65
2021/01/29 00:07:13;;;;;;;2.77;2.50;;;23.90;63.40;;;;;;5034468;28;21026;-65
2021/01/29 00:09:39;;;;;;;2.40;2.20;;;23.90;63.40;;;;;;5034785;28;20450;-65
2021/01/29 00:12:06;;;;;;;2.27;2.10;;;23.90;63.40;;;;;;5034724;28;20448;-66
2021/01/29 00:14:34;;;;;;;2.13;2.03;;;23.90;63.30;;;;;;5034397;28;20443;-65
2021/01/29 00:17:01;;;;;;;2.03;1.80;;;23.90;63.20;;;;;;5034680;28;20803;-66
2021/01/29 00:19:27;;;;;;;2.47;2.27;;;23.90;63.20;;;;;;5034309;28;20982;-66
2021/01/29 00:21:54;;;;;;;2.23;2.13;;;23.90;63.20;;;;;;5034476;28;20447;-66
2021/01/29 00:27:42;;;;;;;1.70;1.60;;;23.90;63.20;;;;;;5034303;28;20942;-66
2021/01/29 00:30:11;;;;;;;1.90;1.80;;;23.90;63.30;;;;;;5034565;28;20476;-66
2021/01/29 00:32:38;;;;;;;2.00;1.90;;;23.80;63.00;;;;;;5034446;28;20451;-65
2021/01/29 00:35:05;;;;;;;1.77;1.67;;;23.90;63.00;;;;;;5034328;28;20443;-65
2021/01/29 00:37:31;;;;;;;2.17;2.07;;;23.90;62.90;;;;;;5034793;28;20453;-65
2021/01/29 00:39:58;;;;;;;1.80;1.70;;;23.90;63.10;;;;;;5034765;28;20457;-65
2021/01/29 00:42:24;;;;;;;1.90;1.80;;;23.90;62.90;;;;;;5034226;28;20890;-65
2021/01/29 00:44:50;;;;;;;1.73;1.53;;;23.80;62.80;;;;;;5034207;28;20481;-65
2021/01/29 00:47:16;;;;;;;1.77;1.67;;;23.80;62.80;;;;;;5034041;28;20548;-65
2021/01/29 00:49:43;;;;;;;1.70;1.60;;;23.90;62.80;;;;;;5034067;28;20453;-66
2021/01/29 00:52:10;;;;;;;2.00;1.90;;;23.90;62.60;;;;;;5034041;28;20775;-65
2021/01/29 00:54:36;;;;;;;1.60;1.50;;;23.80;62.50;;;;;;5033965;28;20447;-65
2021/01/29 00:57:03;;;;;;;1.90;1.80;;;23.80;62.40;;;;;;5033710;28;20962;-66
2021/01/29 00:59:29;;;;;;;1.83;1.60;;;23.80;62.60;;;;;;5033931;28;20444;-65
2021/01/29 01:01:55;;;;;;;1.67;1.57;;;23.90;62.60;;;;;;5033894;28;20443;-64
2021/01/29 01:04:21;;;;;;;1.40;1.30;;;23.80;62.60;;;;;;5033903;28;20444;-65
2021/01/29 01:06:48;;;;;;;1.63;1.53;;;23.80;62.60;;;;;;5033714;28;20486;-65
2021/01/29 01:09:15;;;;;;;1.30;1.20;;;23.80;62.50;;;;;;5033805;28;20454;-64
2021/01/29 01:11:41;;;;;;;1.50;1.40;;;23.80;62.40;;;;;;5033502;28;20497;-65
2021/01/29 01:14:07;;;;;;;1.50;1.30;;;23.80;62.70;;;;;;5033777;28;20464;-65
2021/01/29 01:16:33;;;;;;;1.27;1.17;;;23.80;62.50;;;;;;5033453;28;20436;-66
2021/01/29 01:18:59;;;;;;;1.53;1.43;;;23.80;62.50;;;;;;5033793;28;20447;-66
2021/01/29 01:21:25;;;;;;;1.43;1.33;;;23.80;62.50;;;;;;5033710;28;20452;-65
2021/01/29 01:23:52;;;;;;;1.50;1.40;;;23.80;62.20;;;;;;5033391;28;20478;-66
2021/01/29 01:26:19;;;;;;;2.07;1.87;;;23.80;62.50;;;;;;5033680;28;20889;-65
2021/01/29 01:28:45;;;;;;;1.37;1.27;;;23.90;62.30;;;;;;5033410;28;20935;-65
2021/01/29 01:31:11;;;;;;;1.60;1.50;;;23.80;62.50;;;;;;5033281;28;20490;-65
2021/01/29 01:33:38;;;;;;;1.53;1.33;;;23.80;62.50;;;;;;5033610;28;20454;-65
2021/01/29 01:36:05;;;;;;;1.40;1.30;;;23.80;62.30;;;;;;5037722;28;20450;-66
2021/01/29 01:38:31;;;;;;;1.27;1.17;;;23.80;62.40;;;;;;5037713;28;20906;-64
2021/01/29 01:40:58;;;;;;;1.27;1.17;;;23.80;62.20;;;;;;5037634;28;20449;-66
2021/01/29 01:43:24;;;;;;;1.50;1.40;;;23.80;62.20;;;;;;5037604;28;20444;-65
2021/01/29 01:46:13;;;;;;;1.63;1.30;;;23.80;62.30;;;;;;5037167;28;21009;-65
2021/01/29 01:48:51;;;;;;;1.57;1.47;;;23.80;62.40;;;;;;5031881;28;20974;-65
2021/01/29 01:51:30;;;;;;;1.60;1.50;;;23.80;62.30;;;;;;5037511;28;20439;-66
2021/01/29 01:53:59;;;;;;;1.30;1.20;;;23.80;62.20;;;;;;5037425;28;20433;-65
2021/01/29 01:56:33;;;;;;;1.70;1.60;;;23.80;62.40;;;;;;5037329;28;20505;-65
2021/01/29 02:02:25;;;;;;;1.50;1.40;;;23.80;62.30;;;;;;5037114;28;20403;-65
2021/01/29 02:04:52;;;;;;;1.30;1.20;;;23.70;61.90;;;;;;5037263;28;20431;-65
2021/01/29 02:07:26;;;;;;;1.50;1.40;;;23.80;61.90;;;;;;5037849;28;20491;-65
2021/01/29 02:09:53;;;;;;;1.43;1.33;;;23.80;62.00;;;;;;5037926;28;20434;-65
2021/01/29 02:12:21;;;;;;;1.40;1.30;;;23.80;61.90;;;;;;5036813;28;20447;-65
2021/01/29 02:14:48;;;;;;;1.60;1.40;;;23.80;61.90;;;;;;5036760;28;20445;-65
2021/01/29 02:17:42;;;;;;;1.37;1.27;;;23.80;61.70;;;;;;5036633;28;20452;-66
2021/01/29 02:20:39;;;;;;;1.40;1.30;;;23.80;61.90;;;;;;5036922;28;20462;-66
2021/01/29 02:23:45;;;;;;;1.20;1.10;;;23.80;61.80;;;;;;5021057;28;20440;-65
2021/01/29 02:26:44;;;;;;;1.60;1.50;;;23.70;61.80;;;;;;5036867;28;20475;-65
2021/01/29 02:29:34;;;;;;;1.60;1.50;;;23.70;61.80;;;;;;5036602;28;20432;-65
2021/01/29 02:32:48;;;;;;;1.40;1.30;;;23.70;61.90;;;;;;5036806;28;20452;-65
2021/01/29 02:35:53;;;;;;;1.50;1.40;;;23.70;61.90;;;;;;5029768;28;20452;-65
2021/01/29 02:38:51;;;;;;;1.53;1.43;;;23.70;61.70;;;;;;5036574;28;20429;-64
2021/01/29 02:41:27;;;;;;;1.90;1.80;;;23.70;62.00;;;;;;5037046;28;20433;-65
2021/01/29 02:44:18;;;;;;;1.50;1.40;;;23.70;62.00;;;;;;5036562;28;20438;-65
2021/01/29 02:46:53;;;;;;;1.33;1.23;;;23.70;62.30;;;;;;5034992;28;20483;-65
2021/01/29 02:49:27;;;;;;;1.33;1.17;;;23.70;62.10;;;;;;5036109;28;20483;-65
2021/01/29 02:52:00;;;;;;;1.57;1.47;;;23.70;62.20;;;;;;5036129;28;20436;-66
2021/01/29 02:54:38;;;;;;;1.70;1.60;;;23.70;62.30;;;;;;5036341;28;20436;-66
2021/01/29 02:57:15;;;;;;;1.43;1.20;;;23.80;62.30;;;;;;5036308;28;20891;-66
2021/01/29 02:59:53;;;;;;;1.40;1.30;;;23.70;62.00;;;;;;5036230;28;20490;-65
2021/01/29 03:02:25;;;;;;;1.50;1.40;;;23.70;61.90;;;;;;5036192;28;20493;-66
2021/01/29 03:04:57;;;;;;;2.13;1.93;;;23.70;62.00;;;;;;5036105;28;20455;-65
2021/01/29 03:07:29;;;;;;;1.37;1.27;;;23.70;61.90;;;;;;5036015;28;20878;-66
2021/01/29 03:10:01;;;;;;;1.57;1.47;;;23.70;62.00;;;;;;5036082;28;20784;-65
2021/01/29 03:12:32;;;;;;;1.57;1.47;;;23.80;62.20;;;;;;5036028;28;20947;-65
2021/01/29 03:15:06;;;;;;;1.70;1.60;;;23.80;62.30;;;;;;5035653;28;20977;-65
2021/01/29 03:17:37;;;;;;;1.50;1.40;;;23.80;62.20;;;;;;5035841;28;20428;-65
2021/01/29 03:20:09;;;;;;;1.20;1.10;;;23.80;62.30;;;;;;5035784;28;20448;-65
2021/01/29 03:22:39;;;;;;;1.60;1.50;;;23.80;62.20;;;;;;5035419;28;20437;-65
2021/01/29 03:25:14;;;;;;;1.37;1.27;;;23.80;62.20;;;;;;5035646;28;20448;-66
2021/01/29 03:27:45;;;;;;;1.57;1.47;;;23.80;62.30;;;;;;5035560;28;20808;-66
2021/01/29 03:30:16;;;;;;;1.47;1.37;;;23.80;62.30;;;;;;5035263;28;20481;-66
2021/01/29 03:32:45;;;;;;;1.60;1.50;;;23.80;62.30;;;;;;5034811;28;20519;-65
2021/01/29 03:35:15;;;;;;;1.30;1.20;;;23.80;62.30;;;;;;5035171;28;20969;-66
2021/01/29 03:37:45;;;;;;;1.60;1.50;;;23.80;62.30;;;;;;5035480;28;20437;-66
2021/01/29 03:40:12;;;;;;;1.37;1.20;;;23.80;62.30;;;;;;5036471;28;20440;-66
2021/01/29 03:42:47;;;;;;;1.70;1.60;;;23.80;62.30;;;;;;5035324;28;20545;-66
2021/01/29 03:45:22;;;;;;;1.40;1.30;;;23.80;62.40;;;;;;5035386;28;20438;-65
2021/01/29 03:47:57;;;;;;;1.50;1.40;;;23.80;63.40;;;;;;5035288;28;20484;-65
2021/01/29 03:50:30;;;;;;;1.70;1.60;;;23.80;62.40;;;;;;5035248;28;20442;-65
2021/01/29 03:53:09;;;;;;;1.63;1.53;;;23.80;62.40;;;;;;5035191;28;20487;-65
2021/01/29 03:55:41;;;;;;;1.60;1.50;;;23.80;62.50;;;;;;5035159;28;20435;-65
2021/01/29 03:58:13;;;;;;;1.60;1.50;;;23.80;62.50;;;;;;5034446;28;20438;-65
2021/01/29 04:00:44;;;;;;;1.33;1.23;;;23.80;62.60;;;;;;5035064;28;20435;-65
2021/01/29 04:03:18;;;;;;;1.50;1.40;;;23.80;62.50;;;;;;5034978;28;20443;-65
2021/01/29 04:05:55;;;;;;;1.40;1.30;;;23.80;62.50;;;;;;5034808;28;20443;-65
2021/01/29 04:08:26;;;;;;;1.30;1.20;;;23.80;62.50;;;;;;5034886;28;20432;-66
2021/01/29 04:10:57;;;;;;;1.20;1.10;;;23.80;62.50;;;;;;5035378;28;20432;-66
2021/01/29 04:13:29;;;;;;;1.20;1.10;;;23.80;62.60;;;;;;5034843;28;20426;-66
2021/01/29 04:15:55;;;;;;;1.40;1.30;;;23.80;62.70;;;;;;5034751;28;20433;-66
2021/01/29 04:18:25;;;;;;;1.20;1.10;;;23.80;62.70;;;;;;5034632;28;20452;-65
2021/01/29 04:20:59;;;;;;;1.47;1.37;;;23.80;62.60;;;;;;5034666;28;20456;-66
2021/01/29 04:23:30;;;;;;;1.30;1.20;;;23.80;62.60;;;;;;5034319;28;20435;-64
2021/01/29 04:26:00;;;;;;;1.20;1.10;;;23.80;62.60;;;;;;5034120;28;20437;-65
2021/01/29 04:28:31;;;;;;;1.17;1.07;;;23.80;62.60;;;;;;5034523;28;20788;-65
2021/01/29 04:31:02;;;;;;;1.23;1.10;;;23.80;62.60;;;;;;5034062;28;20483;-65
2021/01/29 04:33:34;;;;;;;1.00;0.90;;;23.80;62.70;;;;;;5034449;28;20446;-66
2021/01/29 04:36:03;;;;;;;1.10;1.00;;;23.80;62.80;;;;;;5034065;28;20440;-65
2021/01/29 04:38:40;;;;;;;1.13;0.97;;;23.80;62.70;;;;;;5034816;28;20447;-66
2021/01/29 04:41:19;;;;;;;1.20;1.00;;;23.80;62.70;;;;;;5034325;28;20431;-66
2021/01/29 04:44:14;;;;;;;1.27;1.17;;;23.80;62.70;;;;;;5034000;28;20436;-66
2021/01/29 04:46:53;;;;;;;1.00;0.80;;;23.80;62.80;;;;;;5034094;28;20483;-64
2021/01/29 04:49:28;;;;;;;1.20;1.10;;;23.70;62.70;;;;;;5034162;28;20439;-66
2021/01/29 04:55:56;;;;;;;1.10;1.00;;;23.80;62.70;;;;;;5034136;28;20394;-65
2021/01/29 04:58:26;;;;;;;1.20;1.00;;;23.70;62.70;;;;;;5027836;28;20456;-66
2021/01/29 05:01:37;;;;;;;0.93;0.80;;;23.70;62.80;;;;;;5033980;28;20447;-65
2021/01/29 05:04:36;;;;;;;1.10;0.90;;;23.70;62.80;;;;;;5033884;28;20424;-66
2021/01/29 05:07:37;;;;;;;1.10;1.00;;;23.70;62.80;;;;;;5033811;28;20873;-65
2021/01/29 05:10:42;;;;;;;1.10;0.90;;;23.70;62.80;;;;;;5032791;28;20947;-65
2021/01/29 05:13:36;;;;;;;1.13;1.00;;;23.70;62.80;;;;;;5033905;28;20806;-64
2021/01/29 05:16:30;;;;;;;1.10;1.00;;;23.70;62.80;;;;;;5033462;28;20436;-64
2021/01/29 05:19:21;;;;;;;1.23;0.90;;;23.70;62.80;;;;;;5033641;28;20440;-65
2021/01/29 05:22:30;;;;;;;1.00;0.80;;;23.80;63.00;;;;;;5033401;28;20428;-65
2021/01/29 05:25:28;;;;;;;1.00;0.80;;;23.80;63.00;;;;;;5033679;28;20432;-65
2021/01/29 05:28:12;;;;;;;1.00;0.80;;;23.80;63.00;;;;;;5033532;28;20535;-65
2021/01/29 05:31:07;;;;;;;0.90;0.70;;;23.80;63.00;;;;;;5033288;28;20479;-65
2021/01/29 05:33:50;;;;;;;1.13;1.03;;;23.80;63.00;;;;;;5033229;28;20440;-66
2021/01/29 05:36:36;;;;;;;1.00;0.80;;;23.80;63.00;;;;;;5033557;28;20440;-66
2021/01/29 05:39:21;;;;;;;1.00;0.80;;;23.80;63.00;;;;;;5033652;28;20437;-65
2021/01/29 05:42:16;;;;;;;0.97;0.80;;;23.80;63.00;;;;;;5033558;28;20527;-64
2021/01/29 05:45:14;;;;;;;1.10;0.80;;;23.80;63.00;;;;;;5033231;28;20434;-66
2021/01/29 05:48:28;;;;;;;0.90;0.70;;;23.80;63.00;;;;;;5033386;28;20480;-66
2021/01/29 05:51:10;;;;;;;1.10;0.70;;;23.80;63.00;;;;;;4986470;28;20451;-65
2021/01/29 06:00:56;;;;;;;1.17;0.87;;;23.80;63.10;;;;;;4991865;28;20473;-65
2021/01/29 06:03:54;;;;;;;1.07;0.97;;;23.80;63.10;;;;;;4991733;28;20432;-65
2021/01/29 06:06:51;;;;;;;1.00;0.80;;;23.80;63.20;;;;;;5016982;28;20998;-65
2021/01/29 06:09:42;;;;;;;0.90;0.70;;;23.80;63.20;;;;;;5033341;28;20457;-66
2021/01/29 06:12:33;;;;;;;0.90;0.60;;;23.80;63.10;;;;;;5033299;28;20433;-65
2021/01/29 06:15:25;;;;;;;1.00;0.80;;;23.80;63.20;;;;;;5033241;28;20521;-65
2021/01/29 06:18:21;;;;;;;0.90;0.70;;;23.80;63.10;;;;;;5032961;28;20939;-65
2021/01/29 06:21:20;;;;;;;1.00;0.60;;;23.80;63.20;;;;;;5034740;28;20432;-65
2021/01/29 06:24:13;;;;;;;0.90;0.70;;;23.80;63.10;;;;;;5033328;28;20452;-65
2021/01/29 06:26:53;;;;;;;0.90;0.70;;;23.80;63.20;;;;;;5036384;28;20986;-65
2021/01/29 06:29:28;;;;;;;1.00;0.80;;;23.80;63.20;;;;;;5036526;28;20486;-65
2021/01/29 06:42:41;;;;;;;1.00;0.70;;;23.80;63.30;;;;;;5036429;28;20431;-65
2021/01/29 06:55:46;;;;;;;0.90;0.80;;;23.80;63.30;;;;;;5036233;28;20417;-66
2021/01/29 06:58:45;;;;;;;0.90;0.60;;;23.80;63.40;;;;;;5035956;28;20453;-65
2021/01/29 07:08:39;;;;;;;0.90;0.60;;;23.80;63.30;;;;;;5036012;28;20543;-66
2021/01/29 07:14:54;;;;;;;0.90;0.60;;;23.80;63.30;;;;;;5035771;28;20508;-65
2021/01/29 07:17:46;;;;;;;1.00;0.80;;;23.80;63.50;;;;;;5035838;28;20433;-65
2021/01/29 07:20:36;;;;;;;0.90;0.60;;;23.80;63.40;;;;;;5036680;28;20436;-65
2021/01/29 07:23:42;;;;;;;1.03;0.70;;;23.80;63.40;;;;;;5032694;28;20443;-64
2021/01/29 07:26:17;;;;;;;1.00;0.70;;;23.90;63.40;;;;;;4955309;29;20441;-65
2021/01/29 07:28:59;;;;;;;0.87;0.60;;;23.90;63.50;;;;;;4955288;29;20442;-66
2021/01/29 07:31:43;;;;;;;0.97;0.70;;;23.90;63.40;;;;;;5007315;28;20834;-66
2021/01/29 07:34:19;;;;;;;1.63;0.70;;;23.90;63.30;;;;;;5035591;28;20441;-65
2021/01/29 07:37:19;;;;;;;0.90;0.70;;;23.90;63.40;;;;;;5035549;28;20439;-64
2021/01/29 07:40:09;;;;;;;1.10;0.70;;;23.90;63.40;;;;;;5002379;28;20447;-65
2021/01/29 07:42:57;;;;;;;3.00;1.23;;;23.90;63.40;;;;;;5035076;28;20926;-68
2021/01/29 07:45:35;;;;;;;3.50;0.80;;;23.90;63.70;;;;;;5035276;28;20448;-67
2021/01/29 07:48:29;;;;;;;7.23;2.00;;;23.90;64.30;;;;;;5035225;28;20477;-65
2021/01/29 07:51:02;;;;;;;1.97;0.90;;;23.90;64.80;;;;;;5035032;28;20493;-65
2021/01/29 07:53:36;;;;;;;2.90;1.30;;;23.90;65.00;;;;;;5034702;28;20427;-65
2021/01/29 07:56:30;;;;;;;2.20;0.97;;;23.90;64.90;;;;;;5035079;28;20502;-65
2021/01/29 07:59:06;;;;;;;1.80;1.23;;;23.90;64.80;;;;;;5034962;28;20437;-65
2021/01/29 08:01:50;;;;;;;2.47;0.90;;;23.90;64.90;;;;;;5034928;28;20828;-65
2021/01/29 08:04:58;;;;;;;2.13;1.30;;;23.90;65.00;;;;;;5034917;28;20440;-65
2021/01/29 08:07:31;;;;;;;3.40;1.20;;;23.90;65.00;;;;;;4984350;28;20488;-65
2021/01/29 08:10:01;;;;;;;1.20;1.10;;;23.90;65.10;;;;;;5034897;28;20437;-65
2021/01/29 08:12:31;;;;;;;2.60;0.93;;;23.90;65.10;;;;;;5035030;28;20821;-65
2021/01/29 08:15:28;;;;;;;1.10;0.97;;;23.90;65.20;;;;;;5034739;28;20443;-65
2021/01/29 08:18:32;;;;;;;2.30;1.33;;;23.90;65.10;;;;;;5034673;28;20445;-65
2021/01/29 08:21:27;;;;;;;3.90;1.27;;;23.90;65.00;;;;;;5034274;28;20943;-65
2021/01/29 08:27:49;;;;;;;2.10;1.17;;;23.90;65.20;;;;;;5034368;28;20523;-65
2021/01/29 08:30:43;;;;;;;1.10;0.90;;;23.80;65.10;;;;;;5034143;28;20537;-65
2021/01/29 08:33:37;;;;;;;1.20;1.10;;;23.90;65.20;;;;;;5034457;28;20428;-65
2021/01/29 08:36:26;;;;;;;1.83;1.10;;;23.80;65.20;;;;;;5034376;28;20444;-65
2021/01/29 08:39:01;;;;;;;2.80;1.00;;;23.90;65.20;;;;;;5034314;28;20538;-65
2021/01/29 08:41:41;;;;;;;1.40;1.10;;;23.80;65.30;;;;;;5034298;28;20518;-65
2021/01/29 08:44:20;;;;;;;1.40;1.03;;;23.80;65.20;;;;;;5034310;28;20437;-65
2021/01/29 08:47:14;;;;;;;1.40;1.00;;;23.80;65.30;;;;;;5033880;28;20483;-65
2021/01/29 08:50:26;;;;;;;2.03;1.20;;;23.80;65.20;;;;;;5034133;28;20428;-65
2021/01/29 08:53:07;;;;;;;1.20;1.00;;;23.80;65.20;;;;;;5014519;28;20857;-65
2021/01/29 08:55:55;;;;;;;1.43;1.33;;;23.80;65.30;;;;;;5034174;28;20438;-65
2021/01/29 08:58:29;;;;;;;2.03;0.87;;;23.80;65.20;;;;;;5034076;28;20510;-65
2021/01/29 09:01:05;;;;;;;1.17;1.07;;;23.80;65.40;;;;;;5034109;28;20531;-65
2021/01/29 09:03:39;;;;;;;1.40;1.30;;;23.80;65.40;;;;;;5033656;28;20532;-65
2021/01/29 09:06:15;;;;;;;1.33;1.07;;;23.80;65.30;;;;;;5033642;28;20436;-65
2021/01/29 09:12:12;;;;;;;1.80;0.90;;;23.80;65.30;;;;;;5033705;28;20840;-65
2021/01/29 09:18:41;;;;;;;1.43;1.30;;;23.90;65.50;;;;;;5033709;28;20513;-65
2021/01/29 09:21:19;;;;;;;1.10;1.00;;;23.80;65.40;;;;;;5033788;28;20522;-65
2021/01/29 09:23:57;;;;;;;1.60;1.50;;;23.80;65.50;;;;;;5033738;28;20432;-65
2021/01/29 09:29:52;;;;;;;1.30;1.00;;;23.80;65.40;;;;;;5026962;28;20514;-65
2021/01/29 09:32:45;;;;;;;1.10;1.00;;;23.80;65.50;;;;;;5030538;28;20481;-65
2021/01/29 09:35:16;;;;;;;1.30;1.20;;;23.80;65.50;;;;;;5033687;28;20428;-65
2021/01/29 09:37:47;;;;;;;1.30;1.20;;;23.80;65.40;;;;;;5033578;28;20437;-65
2021/01/29 09:40:21;;;;;;;1.93;1.10;;;23.80;65.50;;;;;;5033590;28;20444;-65
2021/01/29 09:42:55;;;;;;;1.20;1.00;;;23.80;65.50;;;;;;5034039;28;20432;-65
2021/01/29 09:45:25;;;;;;;1.10;0.90;;;23.80;65.60;;;;;;5033522;28;20424;-65
2021/01/29 09:47:59;;;;;;;1.30;1.20;;;23.80;65.50;;;;;;5034145;28;20851;-65
2021/01/29 09:50:29;;;;;;;1.30;0.90;;;23.80;65.40;;;;;;5033428;28;20432;-65
2021/01/29 09:53:24;;;;;;;1.73;1.00;;;23.80;65.60;;;;;;5033361;28;20443;-65
2021/01/29 09:55:59;;;;;;;1.40;1.10;;;23.80;65.40;;;;;;5035481;28;20455;-65
2021/01/29 09:58:40;;;;;;;1.63;1.30;;;23.80;65.50;;;;;;5037065;28;20427;-65
2021/01/29 10:01:10;;;;;;;1.30;1.17;;;23.80;65.50;;;;;;5036972;28;20434;-65
2021/01/29 10:03:41;;;;;;;1.57;1.47;;;23.80;66.30;;;;;;5037485;28;20498;-65
2021/01/29 10:06:12;;;;;;;2.63;1.57;;;23.80;65.50;;;;;;5036957;28;20907;-65
2021/01/29 10:08:41;;;;;;;1.40;1.03;;;23.80;65.50;;;;;;5038043;28;20428;-65
2021/01/29 10:11:16;;;;;;;2.70;1.40;;;23.80;65.60;;;;;;5037091;28;20474;-65
2021/01/29 10:14:03;;;;;;;1.73;1.10;;;23.80;65.50;;;;;;5036821;28;20969;-65
2021/01/29 10:16:36;;;;;;;1.50;1.10;;;23.80;65.50;;;;;;5036739;28;20440;-65
2021/01/29 10:19:15;;;;;;;1.90;1.00;;;23.80;65.50;;;;;;5037026;28;20438;-66
2021/01/29 10:22:07;;;;;;;2.87;1.43;;;23.80;65.70;;;;;;5036951;28;20432;-66
2021/01/29 10:24:39;;;;;;;1.50;1.40;;;23.80;65.50;;;;;;5036882;28;20447;-66
2021/01/29 10:27:10;;;;;;;1.30;1.00;;;23.80;65.40;;;;;;5036722;28;20480;-66
2021/01/29 10:29:39;;;;;;;1.30;1.17;;;23.80;65.40;;;;;;5036788;28;20440;-66
2021/01/29 10:32:10;;;;;;;1.30;0.97;;;23.90;65.60;;;;;;5036235;28;20984;-66
2021/01/29 10:38:05;;;;;;;3.20;1.30;;;23.90;65.40;;;;;;5036680;28;20446;-66
2021/01/29 10:40:36;;;;;;;3.40;1.30;;;23.80;65.50;;;;;;5036574;28;20429;-65
2021/01/29 10:43:13;;;;;;;2.03;1.20;;;23.80;65.40;;;;;;5036401;28;20438;-66
2021/01/29 10:45:53;;;;;;;1.77;1.20;;;23.90;65.40;;;;;;5036534;28;20442;-66
2021/01/29 10:58:51;;;;;;;1.53;1.10;;;23.90;65.20;;;;;;5036176;28;20409;-66
2021/01/29 11:01:33;;;;;;;1.87;1.03;;;24.00;65.30;;;;;;5036208;28;20434;-66
2021/01/29 11:07:33;;;;;;;1.30;0.87;;;23.90;65.10;;;;;;5035142;28;20482;-66
2021/01/29 11:10:05;;;;;;;1.00;0.90;;;23.90;65.10;;;;;;5036058;28;20440;-66
2021/01/29 11:12:35;;;;;;;1.20;1.10;;;23.90;65.10;;;;;;5035992;28;20435;-66
2021/01/29 11:15:13;;;;;;;2.30;1.30;;;23.90;65.00;;;;;;5036018;28;20432;-66
2021/01/29 11:21:18;;;;;;;1.23;1.13;;;24.00;64.90;;;;;;5036096;28;20400;-67
2021/01/29 11:27:16;;;;;;;1.60;1.10;;;24.00;64.90;;;;;;5035848;28;20977;-67
2021/01/29 11:29:47;;;;;;;1.53;1.40;;;24.00;64.90;;;;;;5035648;28;20428;-67
2021/01/29 11:35:53;;;;;;;1.77;1.20;;;24.00;64.80;;;;;;5035369;28;20479;-67
2021/01/29 11:38:41;;;;;;;1.40;1.20;;;24.00;64.90;;;;;;5035569;28;20435;-66
2021/01/29 11:41:30;;;;;;;1.30;1.00;;;24.00;64.80;;;;;;5035453;28;20448;-67
2021/01/29 11:44:06;;;;;;;1.40;1.00;;;24.00;64.80;;;;;;5035447;28;20439;-67
2021/01/29 11:46:38;;;;;;;1.60;1.03;;;24.00;64.80;;;;;;5035329;28;20465;-67
2021/01/29 11:55:54;;;;;;;9.17;1.53;;;24.00;64.70;;;;;;5035426;28;20451;-64
2021/01/29 11:58:25;;;;;;;5.53;1.73;;;24.00;64.90;;;;;;5035108;28;20441;-65
2021/01/29 12:07:42;;;;;;;10.77;2.23;;;24.00;66.40;;;;;;5034691;28;20818;-65
2021/01/29 12:10:16;;;;;;;9.73;2.80;;;24.00;66.70;;;;;;5034895;28;20435;-64
2021/01/29 12:12:49;;;;;;;7.30;2.30;;;24.00;66.80;;;;;;5034554;28;20946;-65
2021/01/29 12:15:21;;;;;;;18.83;2.87;;;24.00;66.80;;;;;;5034834;28;20438;-64
2021/01/29 12:17:52;;;;;;;8.87;2.20;;;24.00;66.60;;;;;;5034434;28;20430;-65
2021/01/29 12:20:24;;;;;;;12.43;2.10;;;24.00;66.60;;;;;;5034668;28;20439;-64
2021/01/29 12:23:02;;;;;;;9.27;2.83;;;24.00;66.60;;;;;;5035465;28;20430;-65
2021/01/29 12:26:03;;;;;;;3.97;1.80;;;24.00;66.60;;;;;;5034623;28;20429;-65
2021/01/29 12:28:40;;;;;;;8.37;2.50;;;24.00;66.60;;;;;;5008575;28;20508;-65
2021/01/29 12:31:20;;;;;;;8.10;2.20;;;24.00;66.60;;;;;;5034004;28;21039;-65
2021/01/29 12:33:51;;;;;;;8.50;2.17;;;24.10;66.90;;;;;;5034452;28;20433;-64
2021/01/29 12:36:21;;;;;;;7.03;2.30;;;24.00;66.70;;;;;;5034428;28;20800;-65
2021/01/29 12:38:54;;;;;;;7.53;2.27;;;24.00;66.60;;;;;;5034320;28;20447;-64
2021/01/29 12:41:28;;;;;;;5.37;1.70;;;24.00;66.70;;;;;;5034325;28;20779;-65
2021/01/29 12:44:11;;;;;;;3.50;1.50;;;24.00;66.70;;;;;;5033932;28;20941;-64
2021/01/29 12:46:42;;;;;;;7.53;2.63;;;24.00;66.50;;;;;;5034139;28;20795;-64
2021/01/29 12:49:13;;;;;;;6.40;2.00;;;23.90;66.40;;;;;;5034193;28;20429;-63
2021/01/29 12:51:49;;;;;;;3.40;1.60;;;23.90;66.60;;;;;;5033809;28;20440;-64
2021/01/29 12:54:22;;;;;;;8.77;2.00;;;23.90;66.40;;;;;;5034095;28;20432;-65
2021/01/29 12:56:56;;;;;;;5.13;2.33;;;23.90;66.50;;;;;;5034053;28;20788;-65
2021/01/29 13:06:15;;;;;;;4.77;1.37;;;23.90;66.50;;;;;;5033718;28;20492;-65
2021/01/29 13:09:12;;;;;;;5.47;2.20;;;23.90;66.80;;;;;;5033809;28;20486;-66
2021/01/29 13:11:51;;;;;;;3.43;1.73;;;23.90;66.60;;;;;;5033965;28;20903;-66
2021/01/29 13:34:42;;;;;;;4.30;1.60;;;24.00;66.00;;;;;;5024002;28;20458;-66
2021/01/29 13:37:15;;;;;;;3.10;1.63;;;24.00;66.00;;;;;;5033293;28;20432;-65
2021/01/29 13:39:43;;;;;;;2.73;1.70;;;24.00;65.90;;;;;;5033267;28;20433;-66
2021/01/29 13:42:18;;;;;;;2.13;1.40;;;24.00;65.80;;;;;;5033164;28;20450;-66
2021/01/29 13:44:46;;;;;;;3.07;1.50;;;24.00;65.70;;;;;;5033231;28;20464;-66
2021/01/29 13:47:19;;;;;;;3.10;1.63;;;24.00;65.70;;;;;;5033361;28;20549;-65
2021/01/29 14:00:41;;;;;;;1.33;1.23;;;24.00;65.50;;;;;;4991927;28;20391;-66
2021/01/29 14:09:51;;;;;;;3.20;1.40;;;24.00;65.40;;;;;;4991697;28;20405;-66
2021/01/29 14:12:28;;;;;;;1.30;1.00;;;24.00;65.50;;;;;;4991641;28;20447;-65
2021/01/29 14:15:03;;;;;;;1.40;1.10;;;24.00;65.40;;;;;;5027683;28;20505;-66
2021/01/29 14:17:37;;;;;;;1.50;1.13;;;24.10;65.60;;;;;;5032970;28;20432;-66
2021/01/29 14:20:15;;;;;;;1.57;1.20;;;24.10;65.30;;;;;;5032898;28;20433;-65
2021/01/29 14:22:52;;;;;;;2.07;1.37;;;24.10;65.20;;;;;;5032867;28;20437;-66
2021/01/29 14:25:33;;;;;;;1.40;1.07;;;24.10;65.20;;;;;;5033126;28;20440;-66
2021/01/29 14:28:09;;;;;;;1.40;1.17;;;24.10;65.20;;;;;;5033014;28;20586;-66
2021/01/29 14:30:46;;;;;;;2.03;1.10;;;24.10;65.20;;;;;;5033120;28;20466;-66
2021/01/29 14:33:21;;;;;;;1.73;1.20;;;24.10;65.20;;;;;;5032935;28;20437;-65
2021/01/29 14:36:02;;;;;;;1.30;1.10;;;24.10;65.20;;;;;;5033034;28;20436;-66
2021/01/29 14:39:07;;;;;;;1.60;1.07;;;24.10;65.10;;;;;;5033052;28;20435;-66
2021/01/29 14:41:49;;;;;;;1.47;1.10;;;24.10;65.10;;;;;;5032476;28;20442;-66
2021/01/29 14:44:39;;;;;;;1.10;1.00;;;24.10;65.10;;;;;;5036511;28;20433;-66
2021/01/29 14:47:22;;;;;;;1.53;1.30;;;24.10;65.00;;;;;;5036153;28;20494;-65
2021/01/29 14:50:03;;;;;;;1.70;1.20;;;24.10;65.10;;;;;;5036433;28;20496;-66
2021/01/29 14:52:40;;;;;;;1.80;1.20;;;24.10;65.00;;;;;;5037163;28;20763;-66
2021/01/29 14:55:11;;;;;;;1.40;1.20;;;24.10;65.00;;;;;;5036326;28;20429;-66
2021/01/29 14:57:40;;;;;;;1.57;1.10;;;24.10;65.00;;;;;;5036324;28;20827;-66
2021/01/29 15:00:11;;;;;;;1.50;1.10;;;24.10;65.00;;;;;;5035898;28;20486;-65
2021/01/29 15:02:44;;;;;;;3.00;1.30;;;24.10;64.90;;;;;;5036204;28;20440;-65
2021/01/29 15:05:13;;;;;;;1.50;1.40;;;24.10;64.90;;;;;;5036133;28;20433;-65
2021/01/29 15:07:45;;;;;;;1.23;1.07;;;24.10;64.90;;;;;;5035867;28;20489;-65
2021/01/29 15:10:18;;;;;;;1.20;1.10;;;24.10;64.90;;;;;;5036092;28;20434;-66
2021/01/29 15:12:47;;;;;;;3.40;1.20;;;24.10;64.90;;;;;;5036060;28;20445;-66
2021/01/29 15:15:39;;;;;;;1.47;1.10;;;24.10;64.90;;;;;;5035964;28;20444;-66
2021/01/29 15:18:08;;;;;;;1.20;0.90;;;24.20;64.90;;;;;;5035926;28;20449;-66
2021/01/29 15:20:37;;;;;;;1.20;1.07;;;24.10;64.90;;;;;;5035465;28;20456;-66
2021/01/29 15:23:15;;;;;;;2.23;1.00;;;24.10;64.90;;;;;;5035754;28;20544;-66
2021/01/29 15:26:02;;;;;;;1.30;1.00;;;24.10;64.80;;;;;;5035812;28;20464;-66
2021/01/29 15:28:35;;;;;;;1.20;1.00;;;24.10;64.80;;;;;;5035713;28;20530;-66
2021/01/29 15:31:08;;;;;;;1.50;1.20;;;24.10;64.90;;;;;;5035683;28;20487;-66
2021/01/29 15:33:41;;;;;;;1.30;1.20;;;24.20;64.90;;;;;;5035307;28;20480;-65
2021/01/29 15:36:31;;;;;;;1.17;0.93;;;24.10;64.70;;;;;;5035118;28;20943;-66
2021/01/29 15:39:30;;;;;;;1.53;1.00;;;24.20;64.80;;;;;;5035564;28;20443;-66
2021/01/29 15:41:57;;;;;;;1.10;0.90;;;24.20;64.80;;;;;;5028477;28;20447;-66
2021/01/29 15:44:48;;;;;;;1.23;0.90;;;24.10;64.70;;;;;;5035371;28;20449;-66
2021/01/29 15:47:53;;;;;;;1.10;0.80;;;24.20;64.70;;;;;;5035270;28;20472;-66
2021/01/29 15:50:58;;;;;;;1.23;1.00;;;24.20;64.80;;;;;;5035224;28;20850;-65
2021/01/29 15:53:49;;;;;;;1.27;0.90;;;24.10;64.70;;;;;;5034659;28;20930;-66
2021/01/29 15:56:27;;;;;;;1.77;1.37;;;24.10;64.70;;;;;;5035215;28;20497;-66
2021/01/29 15:58:56;;;;;;;1.97;1.20;;;24.10;64.70;;;;;;5035241;28;20923;-66
2021/01/29 16:01:37;;;;;;;1.20;1.00;;;24.10;64.70;;;;;;5035050;28;20463;-65
2021/01/29 16:04:05;;;;;;;4.70;0.80;;;24.20;64.70;;;;;;5034691;28;20437;-65
2021/01/29 16:06:38;;;;;;;1.53;1.00;;;24.20;64.80;;;;;;5035029;28;20440;-65
2021/01/29 16:09:10;;;;;;;1.20;1.03;;;24.20;64.80;;;;;;5034903;28;20555;-65
2021/01/29 16:11:37;;;;;;;1.10;0.90;;;24.20;64.70;;;;;;5034870;28;20443;-66